sensor_id;sensor_type;location;lat;lon;timestamp;pressure;altitude;pressure_sealevel;temperature;humidity
84677;BME280;74901;55.024;73.254;2024-02-14T00:01:14;98974.00;;;-6.26;87.00
84677;BME280;74901;55.024;73.254;2024-02-14T00:03:42;98995.41;;;-6.26;86.93
84677;BME280;74901;55.024;73.254;2024-02-14T00:06:13;98989.91;;;-6.30;87.05
84677;BME280;74901;55.024;73.254;2024-02-14T00:08:42;98976.06;;;-6.32;87.44
84677;BME280;74901;55.024;73.254;2024-02-14T00:11:10;98946.19;;;-6.34;87.27
84677;BME280;74901;55.024;73.254;2024-02-14T00:13:41;98949.81;;;-6.38;87.18
84677;BME280;74901;55.024;73.254;2024-02-14T00:16:09;98987.25;;;-6.38;87.78
84677;BME280;74901;55.024;73.254;2024-02-14T00:18:38;98968.41;;;-6.42;87.48
84677;BME280;74901;55.024;73.254;2024-02-14T00:21:07;98977.34;;;-6.46;87.01
84677;BME280;74901;55.024;73.254;2024-02-14T00:23:38;98967.31;;;-6.49;87.04
84677;BME280;74901;55.024;73.254;2024-02-14T00:26:07;98988.53;;;-6.53;86.43
84677;BME280;74901;55.024;73.254;2024-02-14T00:28:36;98947.81;;;-6.59;86.43
84677;BME280;74901;55.024;73.254;2024-02-14T00:31:05;98974.84;;;-6.60;85.46
84677;BME280;74901;55.024;73.254;2024-02-14T00:33:33;98970.47;;;-6.65;85.68
84677;BME280;74901;55.024;73.254;2024-02-14T00:36:02;98983.69;;;-6.68;85.50
84677;BME280;74901;55.024;73.254;2024-02-14T00:38:31;98970.31;;;-6.68;85.55
84677;BME280;74901;55.024;73.254;2024-02-14T00:41:01;98995.78;;;-6.71;85.25
84677;BME280;74901;55.024;73.254;2024-02-14T00:43:30;98979.44;;;-6.78;85.50
84677;BME280;74901;55.024;73.254;2024-02-14T00:45:59;98982.44;;;-6.88;86.02
84677;BME280;74901;55.024;73.254;2024-02-14T00:48:28;98985.88;;;-6.96;86.30
84677;BME280;74901;55.024;73.254;2024-02-14T00:50:56;98971.91;;;-7.02;86.51
84677;BME280;74901;55.024;73.254;2024-02-14T00:53:26;98980.38;;;-7.08;86.75
84677;BME280;74901;55.024;73.254;2024-02-14T00:55:54;98990.28;;;-7.17;86.17
84677;BME280;74901;55.024;73.254;2024-02-14T00:58:26;98992.94;;;-7.17;86.31
84677;BME280;74901;55.024;73.254;2024-02-14T01:00:55;98954.59;;;-7.21;85.75
84677;BME280;74901;55.024;73.254;2024-02-14T01:03:24;99024.66;;;-7.24;86.08
84677;BME280;74901;55.024;73.254;2024-02-14T01:05:53;99029.34;;;-7.30;85.82
84677;BME280;74901;55.024;73.254;2024-02-14T01:08:22;98976.25;;;-7.31;85.41
84677;BME280;74901;55.024;73.254;2024-02-14T01:10:50;99009.25;;;-7.36;85.49
84677;BME280;74901;55.024;73.254;2024-02-14T01:13:19;98970.59;;;-7.39;85.50
84677;BME280;74901;55.024;73.254;2024-02-14T01:15:50;98954.75;;;-7.44;85.40
84677;BME280;74901;55.024;73.254;2024-02-14T01:18:19;98956.59;;;-7.53;84.64
84677;BME280;74901;55.024;73.254;2024-02-14T01:20:48;98967.75;;;-7.59;84.66
84677;BME280;74901;55.024;73.254;2024-02-14T01:23:16;98979.34;;;-7.64;84.75
84677;BME280;74901;55.024;73.254;2024-02-14T01:25:45;98976.03;;;-7.69;84.55
84677;BME280;74901;55.024;73.254;2024-02-14T01:28:14;98972.41;;;-7.73;84.21
84677;BME280;74901;55.024;73.254;2024-02-14T01:30:44;98946.81;;;-7.74;84.35
84677;BME280;74901;55.024;73.254;2024-02-14T01:33:14;98977.91;;;-7.79;84.23
84677;BME280;74901;55.024;73.254;2024-02-14T01:35:43;98963.91;;;-7.84;84.76
84677;BME280;74901;55.024;73.254;2024-02-14T01:38:12;98969.38;;;-7.89;85.20
84677;BME280;74901;55.024;73.254;2024-02-14T01:40:42;98963.38;;;-7.95;85.36
84677;BME280;74901;55.024;73.254;2024-02-14T01:43:13;98977.16;;;-8.01;85.54
84677;BME280;74901;55.024;73.254;2024-02-14T01:45:43;98982.16;;;-8.08;85.95
84677;BME280;74901;55.024;73.254;2024-02-14T01:48:13;98985.28;;;-8.15;86.41
84677;BME280;74901;55.024;73.254;2024-02-14T01:50:45;98954.31;;;-8.25;86.68
84677;BME280;74901;55.024;73.254;2024-02-14T01:53:15;98955.22;;;-8.38;86.73
84677;BME280;74901;55.024;73.254;2024-02-14T01:55:44;98965.94;;;-8.60;86.28
84677;BME280;74901;55.024;73.254;2024-02-14T01:58:13;99027.66;;;-8.80;85.87
84677;BME280;74901;55.024;73.254;2024-02-14T02:00:42;98960.66;;;-8.96;84.89
84677;BME280;74901;55.024;73.254;2024-02-14T02:03:15;98980.63;;;-9.07;83.82
84677;BME280;74901;55.024;73.254;2024-02-14T02:05:44;98992.44;;;-9.13;83.33
84677;BME280;74901;55.024;73.254;2024-02-14T02:11:18;99034.56;;;-9.29;81.51
84677;BME280;74901;55.024;73.254;2024-02-14T02:13:47;99004.53;;;-9.43;81.71
84677;BME280;74901;55.024;73.254;2024-02-14T02:16:16;99044.16;;;-9.55;80.63
84677;BME280;74901;55.024;73.254;2024-02-14T02:18:47;99025.75;;;-9.65;80.21
84677;BME280;74901;55.024;73.254;2024-02-14T02:21:17;99041.09;;;-9.76;80.31
84677;BME280;74901;55.024;73.254;2024-02-14T02:23:51;99079.28;;;-9.86;80.25
84677;BME280;74901;55.024;73.254;2024-02-14T02:26:20;99059.47;;;-9.93;79.68
84677;BME280;74901;55.024;73.254;2024-02-14T02:28:49;99038.69;;;-10.05;79.66
84677;BME280;74901;55.024;73.254;2024-02-14T02:31:18;99068.31;;;-10.11;79.73
84677;BME280;74901;55.024;73.254;2024-02-14T02:33:47;99067.63;;;-10.17;79.27
84677;BME280;74901;55.024;73.254;2024-02-14T02:36:16;99058.88;;;-10.17;79.73
84677;BME280;74901;55.024;73.254;2024-02-14T02:38:45;99079.44;;;-10.23;79.91
84677;BME280;74901;55.024;73.254;2024-02-14T02:41:17;99050.28;;;-10.28;80.66
84677;BME280;74901;55.024;73.254;2024-02-14T02:43:46;99049.41;;;-10.37;80.65
84677;BME280;74901;55.024;73.254;2024-02-14T02:46:17;99032.16;;;-10.40;80.51
84677;BME280;74901;55.024;73.254;2024-02-14T02:48:46;99074.75;;;-10.45;80.35
84677;BME280;74901;55.024;73.254;2024-02-14T02:51:16;99036.53;;;-10.49;79.31
84677;BME280;74901;55.024;73.254;2024-02-14T02:53:45;99063.31;;;-10.45;78.82
84677;BME280;74901;55.024;73.254;2024-02-14T02:56:16;99030.66;;;-10.46;78.78
84677;BME280;74901;55.024;73.254;2024-02-14T02:58:45;99030.38;;;-10.44;78.89
84677;BME280;74901;55.024;73.254;2024-02-14T03:01:14;99032.81;;;-10.48;79.43
84677;BME280;74901;55.024;73.254;2024-02-14T03:03:43;99065.75;;;-10.49;79.12
84677;BME280;74901;55.024;73.254;2024-02-14T03:06:12;99095.75;;;-10.48;79.48
84677;BME280;74901;55.024;73.254;2024-02-14T03:08:41;99037.34;;;-10.48;79.86
84677;BME280;74901;55.024;73.254;2024-02-14T03:11:09;99058.38;;;-10.52;80.04
84677;BME280;74901;55.024;73.254;2024-02-14T03:13:40;99049.44;;;-10.56;80.78
84677;BME280;74901;55.024;73.254;2024-02-14T03:16:11;99051.06;;;-10.60;80.88
84677;BME280;74901;55.024;73.254;2024-02-14T03:18:41;99064.16;;;-10.63;80.88
84677;BME280;74901;55.024;73.254;2024-02-14T03:21:10;99074.19;;;-10.60;80.22
84677;BME280;74901;55.024;73.254;2024-02-14T03:23:39;99060.19;;;-10.66;79.95
84677;BME280;74901;55.024;73.254;2024-02-14T03:26:08;99076.53;;;-10.59;80.10
84677;BME280;74901;55.024;73.254;2024-02-14T03:28:39;99087.97;;;-10.58;80.23
84677;BME280;74901;55.024;73.254;2024-02-14T03:31:08;99057.84;;;-10.68;80.25
84677;BME280;74901;55.024;73.254;2024-02-14T03:33:42;99056.97;;;-10.63;80.35
84677;BME280;74901;55.024;73.254;2024-02-14T03:36:11;99081.56;;;-10.57;80.09
84677;BME280;74901;55.024;73.254;2024-02-14T03:38:40;99081.16;;;-10.65;79.88
84677;BME280;74901;55.024;73.254;2024-02-14T03:41:09;99065.81;;;-10.68;79.74
84677;BME280;74901;55.024;73.254;2024-02-14T03:43:39;99086.03;;;-10.72;78.92
84677;BME280;74901;55.024;73.254;2024-02-14T03:46:08;99061.00;;;-10.84;78.28
84677;BME280;74901;55.024;73.254;2024-02-14T03:48:43;99075.63;;;-10.68;77.68
84677;BME280;74901;55.024;73.254;2024-02-14T03:51:14;99073.00;;;-10.54;77.73
84677;BME280;74901;55.024;73.254;2024-02-14T03:53:43;99074.88;;;-10.55;76.72
84677;BME280;74901;55.024;73.254;2024-02-14T03:56:12;99099.09;;;-10.56;77.04
84677;BME280;74901;55.024;73.254;2024-02-14T03:58:44;99103.59;;;-10.57;76.75
84677;BME280;74901;55.024;73.254;2024-02-14T04:01:15;99088.81;;;-10.63;76.16
84677;BME280;74901;55.024;73.254;2024-02-14T04:03:46;99096.72;;;-10.77;75.89
84677;BME280;74901;55.024;73.254;2024-02-14T04:06:16;99115.72;;;-10.88;75.74
84677;BME280;74901;55.024;73.254;2024-02-14T04:08:44;99101.50;;;-10.97;75.89
84677;BME280;74901;55.024;73.254;2024-02-14T04:11:13;99082.34;;;-11.13;75.32
84677;BME280;74901;55.024;73.254;2024-02-14T04:13:45;99147.22;;;-11.24;75.26
84677;BME280;74901;55.024;73.254;2024-02-14T04:16:15;99103.09;;;-11.39;74.96
84677;BME280;74901;55.024;73.254;2024-02-14T04:18:47;99093.69;;;-11.50;75.31
84677;BME280;74901;55.024;73.254;2024-02-14T04:21:16;99087.31;;;-11.49;74.88
84677;BME280;74901;55.024;73.254;2024-02-14T04:23:45;99115.09;;;-11.47;74.72
84677;BME280;74901;55.024;73.254;2024-02-14T04:26:19;99105.00;;;-11.44;75.28
84677;BME280;74901;55.024;73.254;2024-02-14T04:28:50;99114.59;;;-11.49;75.25
84677;BME280;74901;55.024;73.254;2024-02-14T04:31:19;99123.38;;;-11.53;74.74
84677;BME280;74901;55.024;73.254;2024-02-14T04:33:47;99111.84;;;-11.62;74.36
84677;BME280;74901;55.024;73.254;2024-02-14T04:36:19;99143.69;;;-11.67;74.16
84677;BME280;74901;55.024;73.254;2024-02-14T04:38:49;99172.22;;;-11.83;73.77
84677;BME280;74901;55.024;73.254;2024-02-14T04:41:18;99140.94;;;-11.81;73.69
84677;BME280;74901;55.024;73.254;2024-02-14T04:43:49;99131.97;;;-11.85;73.24
84677;BME280;74901;55.024;73.254;2024-02-14T04:46:18;99154.78;;;-11.89;73.20
84677;BME280;74901;55.024;73.254;2024-02-14T04:48:49;99159.50;;;-11.81;73.10
84677;BME280;74901;55.024;73.254;2024-02-14T04:51:17;99135.63;;;-11.81;73.02
84677;BME280;74901;55.024;73.254;2024-02-14T04:53:46;99164.16;;;-11.73;72.55
84677;BME280;74901;55.024;73.254;2024-02-14T04:56:15;99179.22;;;-11.68;72.16
84677;BME280;74901;55.024;73.254;2024-02-14T04:58:43;99173.06;;;-11.64;72.57
84677;BME280;74901;55.024;73.254;2024-02-14T05:01:14;99152.41;;;-11.91;72.19
84677;BME280;74901;55.024;73.254;2024-02-14T05:03:44;99166.25;;;-11.99;72.45
84677;BME280;74901;55.024;73.254;2024-02-14T05:06:13;99187.72;;;-12.00;71.96
84677;BME280;74901;55.024;73.254;2024-02-14T05:08:42;99179.50;;;-11.99;71.80
84677;BME280;74901;55.024;73.254;2024-02-14T05:11:10;99189.78;;;-11.92;71.85
84677;BME280;74901;55.024;73.254;2024-02-14T05:13:40;99222.81;;;-11.84;72.04
84677;BME280;74901;55.024;73.254;2024-02-14T05:16:10;99181.34;;;-11.70;71.39
84677;BME280;74901;55.024;73.254;2024-02-14T05:18:42;99195.22;;;-11.78;71.46
84677;BME280;74901;55.024;73.254;2024-02-14T05:21:11;99187.19;;;-12.02;70.79
84677;BME280;74901;55.024;73.254;2024-02-14T05:23:40;99197.34;;;-12.14;71.48
84677;BME280;74901;55.024;73.254;2024-02-14T05:26:10;99217.00;;;-12.20;70.86
84677;BME280;74901;55.024;73.254;2024-02-14T05:28:39;99270.00;;;-12.25;70.27
84677;BME280;74901;55.024;73.254;2024-02-14T05:31:08;99216.53;;;-12.33;70.11
84677;BME280;74901;55.024;73.254;2024-02-14T05:33:36;99173.38;;;-12.33;70.37
84677;BME280;74901;55.024;73.254;2024-02-14T05:36:07;99266.81;;;-12.27;70.29
84677;BME280;74901;55.024;73.254;2024-02-14T05:38:36;99214.88;;;-12.18;71.10
84677;BME280;74901;55.024;73.254;2024-02-14T05:41:05;99229.75;;;-12.22;71.76
84677;BME280;74901;55.024;73.254;2024-02-14T05:43:35;99196.47;;;-12.39;72.67
84677;BME280;74901;55.024;73.254;2024-02-14T05:46:05;99284.16;;;-12.55;72.20
84677;BME280;74901;55.024;73.254;2024-02-14T05:48:36;99236.34;;;-12.74;72.51
84677;BME280;74901;55.024;73.254;2024-02-14T05:51:06;99232.97;;;-12.85;70.72
84677;BME280;74901;55.024;73.254;2024-02-14T05:53:36;99248.56;;;-12.88;70.04
84677;BME280;74901;55.024;73.254;2024-02-14T05:56:05;99278.72;;;-12.89;69.54
84677;BME280;74901;55.024;73.254;2024-02-14T05:58:34;99265.78;;;-12.91;68.90
84677;BME280;74901;55.024;73.254;2024-02-14T06:01:03;99218.94;;;-12.85;68.37
84677;BME280;74901;55.024;73.254;2024-02-14T06:03:32;99267.06;;;-12.83;68.32
84677;BME280;74901;55.024;73.254;2024-02-14T06:06:01;99268.16;;;-12.84;68.18
84677;BME280;74901;55.024;73.254;2024-02-14T06:08:31;99275.00;;;-12.88;68.13
84677;BME280;74901;55.024;73.254;2024-02-14T06:11:00;99252.50;;;-12.76;68.00
84677;BME280;74901;55.024;73.254;2024-02-14T06:13:29;99309.06;;;-12.61;68.16
84677;BME280;74901;55.024;73.254;2024-02-14T06:15:58;99316.09;;;-12.32;67.76
84677;BME280;74901;55.024;73.254;2024-02-14T06:18:27;99237.94;;;-12.24;68.31
84677;BME280;74901;55.024;73.254;2024-02-14T06:20:55;99273.34;;;-12.64;68.59
84677;BME280;74901;55.024;73.254;2024-02-14T06:23:24;99308.88;;;-12.85;68.53
84677;BME280;74901;55.024;73.254;2024-02-14T06:25:55;99344.31;;;-12.86;67.77
84677;BME280;74901;55.024;73.254;2024-02-14T06:28:24;99336.09;;;-12.80;67.61
84677;BME280;74901;55.024;73.254;2024-02-14T06:30:52;99355.16;;;-12.78;69.31
84677;BME280;74901;55.024;73.254;2024-02-14T06:33:22;99299.38;;;-13.01;71.98
84677;BME280;74901;55.024;73.254;2024-02-14T06:35:50;99347.56;;;-13.30;74.42
84677;BME280;74901;55.024;73.254;2024-02-14T06:38:19;99298.94;;;-13.54;76.06
84677;BME280;74901;55.024;73.254;2024-02-14T06:40:48;99334.59;;;-13.62;75.68
84677;BME280;74901;55.024;73.254;2024-02-14T06:43:18;99323.78;;;-13.55;75.18
84677;BME280;74901;55.024;73.254;2024-02-14T06:45:52;99304.78;;;-13.52;73.92
84677;BME280;74901;55.024;73.254;2024-02-14T06:48:20;99330.38;;;-13.37;72.45
84677;BME280;74901;55.024;73.254;2024-02-14T06:50:50;99306.25;;;-12.95;72.17
84677;BME280;74901;55.024;73.254;2024-02-14T06:53:20;99361.25;;;-12.92;72.75
84677;BME280;74901;55.024;73.254;2024-02-14T06:55:49;99332.25;;;-13.28;74.47
84677;BME280;74901;55.024;73.254;2024-02-14T06:58:19;99416.72;;;-13.83;74.99
84677;BME280;74901;55.024;73.254;2024-02-14T07:00:48;99340.00;;;-14.34;74.76
84677;BME280;74901;55.024;73.254;2024-02-14T07:03:17;99376.94;;;-14.39;74.46
84677;BME280;74901;55.024;73.254;2024-02-14T07:05:46;99347.41;;;-14.26;73.56
84677;BME280;74901;55.024;73.254;2024-02-14T07:08:15;99414.47;;;-14.17;72.42
84677;BME280;74901;55.024;73.254;2024-02-14T07:10:44;99340.25;;;-14.30;72.82
84677;BME280;74901;55.024;73.254;2024-02-14T07:13:13;99354.78;;;-14.33;71.05
84677;BME280;74901;55.024;73.254;2024-02-14T07:15:43;99358.50;;;-14.24;70.55
84677;BME280;74901;55.024;73.254;2024-02-14T07:18:12;99363.75;;;-14.39;70.76
84677;BME280;74901;55.024;73.254;2024-02-14T07:20:41;99408.06;;;-14.41;71.03
84677;BME280;74901;55.024;73.254;2024-02-14T07:23:11;99381.31;;;-14.65;70.47
84677;BME280;74901;55.024;73.254;2024-02-14T07:25:39;99418.84;;;-14.90;70.98
84677;BME280;74901;55.024;73.254;2024-02-14T07:28:09;99552.81;;;-15.13;70.61
84677;BME280;74901;55.024;73.254;2024-02-14T07:30:38;99428.94;;;-15.45;69.85
84677;BME280;74901;55.024;73.254;2024-02-14T07:33:09;99439.53;;;-15.35;70.33
84677;BME280;74901;55.024;73.254;2024-02-14T07:35:37;99428.00;;;-15.29;70.12
84677;BME280;74901;55.024;73.254;2024-02-14T07:38:06;99439.16;;;-15.22;69.47
84677;BME280;74901;55.024;73.254;2024-02-14T07:40:35;99436.28;;;-15.47;69.02
84677;BME280;74901;55.024;73.254;2024-02-14T07:43:04;99467.63;;;-15.73;67.95
84677;BME280;74901;55.024;73.254;2024-02-14T07:45:33;99456.81;;;-15.98;68.77
84677;BME280;74901;55.024;73.254;2024-02-14T07:48:02;99473.47;;;-16.14;67.32
84677;BME280;74901;55.024;73.254;2024-02-14T07:50:33;99499.59;;;-16.29;67.51
84677;BME280;74901;55.024;73.254;2024-02-14T07:53:02;99475.22;;;-16.42;67.58
84677;BME280;74901;55.024;73.254;2024-02-14T07:55:31;99487.63;;;-16.54;67.14
84677;BME280;74901;55.024;73.254;2024-02-14T07:58:00;99510.97;;;-16.62;66.92
84677;BME280;74901;55.024;73.254;2024-02-14T08:00:30;99610.13;;;-16.74;68.49
84677;BME280;74901;55.024;73.254;2024-02-14T08:02:59;99541.06;;;-16.70;68.42
84677;BME280;74901;55.024;73.254;2024-02-14T08:05:32;99526.00;;;-16.91;68.16
84677;BME280;74901;55.024;73.254;2024-02-14T08:08:01;99612.72;;;-17.19;67.88
84677;BME280;74901;55.024;73.254;2024-02-14T08:10:30;99527.53;;;-17.40;67.76
84677;BME280;74901;55.024;73.254;2024-02-14T08:12:59;99582.00;;;-17.19;67.19
84677;BME280;74901;55.024;73.254;2024-02-14T08:15:27;99558.44;;;-17.14;66.34
84677;BME280;74901;55.024;73.254;2024-02-14T08:17:59;99563.31;;;-17.06;66.53
84677;BME280;74901;55.024;73.254;2024-02-14T08:20:27;99605.00;;;-16.98;66.94
84677;BME280;74901;55.024;73.254;2024-02-14T08:22:58;99588.31;;;-16.75;67.23
84677;BME280;74901;55.024;73.254;2024-02-14T08:25:27;99596.81;;;-16.85;67.18
84677;BME280;74901;55.024;73.254;2024-02-14T08:27:56;99647.63;;;-17.07;68.11
84677;BME280;74901;55.024;73.254;2024-02-14T08:30:25;99636.59;;;-17.33;66.53
84677;BME280;74901;55.024;73.254;2024-02-14T08:32:54;99657.09;;;-17.58;66.62
84677;BME280;74901;55.024;73.254;2024-02-14T08:35:23;99640.16;;;-17.79;66.13
84677;BME280;74901;55.024;73.254;2024-02-14T08:37:52;99657.94;;;-17.92;67.05
84677;BME280;74901;55.024;73.254;2024-02-14T08:40:22;99639.69;;;-18.22;66.51
84677;BME280;74901;55.024;73.254;2024-02-14T08:42:51;99630.19;;;-18.46;65.90
84677;BME280;74901;55.024;73.254;2024-02-14T08:45:20;99652.63;;;-18.51;65.62
84677;BME280;74901;55.024;73.254;2024-02-14T08:47:49;99610.16;;;-18.41;65.62
84677;BME280;74901;55.024;73.254;2024-02-14T08:50:18;99656.31;;;-18.28;65.08
84677;BME280;74901;55.024;73.254;2024-02-14T08:52:47;99637.19;;;-18.17;64.97
84677;BME280;74901;55.024;73.254;2024-02-14T08:55:16;99743.22;;;-18.13;65.07
84677;BME280;74901;55.024;73.254;2024-02-14T08:57:46;99683.25;;;-18.21;65.26
84677;BME280;74901;55.024;73.254;2024-02-14T09:00:16;99772.13;;;-18.31;64.64
84677;BME280;74901;55.024;73.254;2024-02-14T09:02:47;99715.63;;;-18.57;65.07
84677;BME280;74901;55.024;73.254;2024-02-14T09:05:18;99685.84;;;-18.74;64.35
84677;BME280;74901;55.024;73.254;2024-02-14T09:07:48;99679.00;;;-18.75;64.41
84677;BME280;74901;55.024;73.254;2024-02-14T09:13:27;99755.50;;;-18.67;63.89
84677;BME280;74901;55.024;73.254;2024-02-14T09:15:56;99751.09;;;-18.55;64.58
84677;BME280;74901;55.024;73.254;2024-02-14T09:18:28;99703.94;;;-18.55;64.41
84677;BME280;74901;55.024;73.254;2024-02-14T09:20:58;99761.91;;;-18.81;65.07
84677;BME280;74901;55.024;73.254;2024-02-14T09:23:30;99782.66;;;-18.98;65.41
84677;BME280;74901;55.024;73.254;2024-02-14T09:25:59;99754.50;;;-19.20;65.59
84677;BME280;74901;55.024;73.254;2024-02-14T09:28:29;99739.22;;;-19.23;66.13
84677;BME280;74901;55.024;73.254;2024-02-14T09:31:00;99796.88;;;-19.30;65.21
84677;BME280;74901;55.024;73.254;2024-02-14T09:33:31;99737.78;;;-19.38;64.88
84677;BME280;74901;55.024;73.254;2024-02-14T09:36:00;99861.38;;;-19.36;64.00
84677;BME280;74901;55.024;73.254;2024-02-14T09:38:29;99787.13;;;-19.41;63.65
84677;BME280;74901;55.024;73.254;2024-02-14T09:41:03;99833.00;;;-19.39;63.26
84677;BME280;74901;55.024;73.254;2024-02-14T09:43:38;99820.09;;;-19.34;64.03
84677;BME280;74901;55.024;73.254;2024-02-14T09:46:12;99766.06;;;-19.28;64.29
84677;BME280;74901;55.024;73.254;2024-02-14T09:48:43;99826.19;;;-19.40;63.99
84677;BME280;74901;55.024;73.254;2024-02-14T09:51:13;99841.22;;;-19.53;63.77
84677;BME280;74901;55.024;73.254;2024-02-14T09:53:42;99824.50;;;-19.52;63.44
84677;BME280;74901;55.024;73.254;2024-02-14T09:56:11;99855.03;;;-19.46;63.90
84677;BME280;74901;55.024;73.254;2024-02-14T09:58:44;99880.41;;;-19.47;63.73
84677;BME280;74901;55.024;73.254;2024-02-14T10:01:26;99872.13;;;-19.68;64.12
84677;BME280;74901;55.024;73.254;2024-02-14T10:03:55;99813.38;;;-19.48;64.24
84677;BME280;74901;55.024;73.254;2024-02-14T10:06:25;99874.03;;;-19.08;63.09
84677;BME280;74901;55.024;73.254;2024-02-14T10:08:54;99867.66;;;-19.18;63.62
84677;BME280;74901;55.024;73.254;2024-02-14T10:11:23;99828.59;;;-19.38;64.28
84677;BME280;74901;55.024;73.254;2024-02-14T10:13:55;99912.44;;;-19.51;64.08
84677;BME280;74901;55.024;73.254;2024-02-14T10:16:28;99852.47;;;-19.53;63.90
84677;BME280;74901;55.024;73.254;2024-02-14T10:18:57;99860.94;;;-19.33;63.47
84677;BME280;74901;55.024;73.254;2024-02-14T10:21:26;99850.69;;;-19.34;63.78
84677;BME280;74901;55.024;73.254;2024-02-14T10:24:00;99887.97;;;-19.39;63.59
84677;BME280;74901;55.024;73.254;2024-02-14T10:26:30;99887.94;;;-19.57;62.47
84677;BME280;74901;55.024;73.254;2024-02-14T10:29:01;99897.81;;;-19.59;62.60
84677;BME280;74901;55.024;73.254;2024-02-14T10:31:48;100039.25;;;-17.50;59.72
84677;BME280;74901;55.024;73.254;2024-02-14T10:34:18;99926.56;;;-16.64;58.33
84677;BME280;74901;55.024;73.254;2024-02-14T10:36:49;99919.03;;;-16.09;57.15
84677;BME280;74901;55.024;73.254;2024-02-14T10:39:22;99938.88;;;-15.89;55.98
84677;BME280;74901;55.024;73.254;2024-02-14T10:41:51;99971.50;;;-15.90;55.73
84677;BME280;74901;55.024;73.254;2024-02-14T10:44:22;99944.09;;;-16.06;54.62
84677;BME280;74901;55.024;73.254;2024-02-14T10:46:53;99951.16;;;-15.95;54.41
84677;BME280;74901;55.024;73.254;2024-02-14T10:49:25;99966.13;;;-16.70;53.40
84677;BME280;74901;55.024;73.254;2024-02-14T10:51:56;99949.88;;;-17.44;55.39
84677;BME280;74901;55.024;73.254;2024-02-14T10:54:31;100023.50;;;-16.32;54.65
84677;BME280;74901;55.024;73.254;2024-02-14T10:57:05;99975.16;;;-15.80;54.17
84677;BME280;74901;55.024;73.254;2024-02-14T10:59:43;99993.88;;;-16.05;53.39
84677;BME280;74901;55.024;73.254;2024-02-14T11:02:13;100011.72;;;-16.07;52.90
84677;BME280;74901;55.024;73.254;2024-02-14T11:04:42;99979.34;;;-16.19;52.01
84677;BME280;74901;55.024;73.254;2024-02-14T11:07:11;100040.31;;;-16.45;51.66
84677;BME280;74901;55.024;73.254;2024-02-14T11:09:42;99967.25;;;-16.78;51.23
84677;BME280;74901;55.024;73.254;2024-02-14T11:12:12;99994.59;;;-17.20;50.20
84677;BME280;74901;55.024;73.254;2024-02-14T11:14:44;99998.56;;;-17.30;49.97
84677;BME280;74901;55.024;73.254;2024-02-14T11:17:13;99997.53;;;-17.40;50.46
84677;BME280;74901;55.024;73.254;2024-02-14T11:19:44;99962.91;;;-17.37;50.42
84677;BME280;74901;55.024;73.254;2024-02-14T11:22:18;100050.13;;;-17.47;49.66
84677;BME280;74901;55.024;73.254;2024-02-14T11:24:47;100000.75;;;-17.86;49.57
84677;BME280;74901;55.024;73.254;2024-02-14T11:27:18;100036.66;;;-18.23;50.53
84677;BME280;74901;55.024;73.254;2024-02-14T11:29:56;100037.84;;;-18.62;50.64
84677;BME280;74901;55.024;73.254;2024-02-14T11:32:27;100045.47;;;-19.17;52.01
84677;BME280;74901;55.024;73.254;2024-02-14T11:34:58;100024.31;;;-19.91;52.47
84677;BME280;74901;55.024;73.254;2024-02-14T11:37:29;100052.56;;;-20.26;53.37
84677;BME280;74901;55.024;73.254;2024-02-14T11:39:58;100089.19;;;-20.59;54.45
84677;BME280;74901;55.024;73.254;2024-02-14T11:42:28;100066.84;;;-21.08;55.32
84677;BME280;74901;55.024;73.254;2024-02-14T11:44:59;100044.50;;;-21.56;56.06
84677;BME280;74901;55.024;73.254;2024-02-14T11:47:28;100096.88;;;-21.51;56.57
84677;BME280;74901;55.024;73.254;2024-02-14T11:49:58;100107.47;;;-21.53;56.71
84677;BME280;74901;55.024;73.254;2024-02-14T11:52:27;100124.53;;;-21.57;57.21
84677;BME280;74901;55.024;73.254;2024-02-14T11:54:56;100130.94;;;-21.59;57.33
84677;BME280;74901;55.024;73.254;2024-02-14T11:57:26;100134.47;;;-21.73;57.99
84677;BME280;74901;55.024;73.254;2024-02-14T11:59:57;100083.03;;;-21.99;57.97
84677;BME280;74901;55.024;73.254;2024-02-14T12:02:28;100131.75;;;-22.00;58.59
84677;BME280;74901;55.024;73.254;2024-02-14T12:04:57;100152.53;;;-22.06;59.34
84677;BME280;74901;55.024;73.254;2024-02-14T12:07:26;100175.31;;;-22.15;59.63
84677;BME280;74901;55.024;73.254;2024-02-14T12:09:56;100146.38;;;-22.27;60.01
84677;BME280;74901;55.024;73.254;2024-02-14T12:12:24;100174.22;;;-22.27;60.51
84677;BME280;74901;55.024;73.254;2024-02-14T12:14:53;100168.53;;;-22.37;60.84
84677;BME280;74901;55.024;73.254;2024-02-14T12:17:22;100164.50;;;-22.40;60.38
84677;BME280;74901;55.024;73.254;2024-02-14T12:19:53;100206.56;;;-22.43;60.93
84677;BME280;74901;55.024;73.254;2024-02-14T12:22:22;100212.34;;;-22.47;60.77
84677;BME280;74901;55.024;73.254;2024-02-14T12:24:56;100275.75;;;-22.55;60.32
84677;BME280;74901;55.024;73.254;2024-02-14T12:27:26;100195.38;;;-22.58;60.66
84677;BME280;74901;55.024;73.254;2024-02-14T12:29:55;100203.69;;;-22.69;60.89
84677;BME280;74901;55.024;73.254;2024-02-14T12:32:24;100203.00;;;-22.56;60.83
84677;BME280;74901;55.024;73.254;2024-02-14T12:34:55;100232.84;;;-22.59;60.24
84677;BME280;74901;55.024;73.254;2024-02-14T12:37:24;100245.41;;;-22.63;60.84
84677;BME280;74901;55.024;73.254;2024-02-14T12:39:53;100247.72;;;-22.74;60.94
84677;BME280;74901;55.024;73.254;2024-02-14T12:42:23;100235.25;;;-22.79;61.57
84677;BME280;74901;55.024;73.254;2024-02-14T12:44:55;100242.91;;;-22.77;61.85
84677;BME280;74901;55.024;73.254;2024-02-14T12:47:23;100285.44;;;-22.85;62.24
84677;BME280;74901;55.024;73.254;2024-02-14T12:49:59;100302.59;;;-22.90;62.21
84677;BME280;74901;55.024;73.254;2024-02-14T12:52:29;100263.31;;;-22.95;61.81
84677;BME280;74901;55.024;73.254;2024-02-14T12:54:57;100271.03;;;-23.02;61.24
84677;BME280;74901;55.024;73.254;2024-02-14T12:57:26;100278.84;;;-23.02;61.04
84677;BME280;74901;55.024;73.254;2024-02-14T12:59:55;100270.38;;;-23.04;60.94